Terminal Aerodrome Forecast
Issued by NWS

Home | Current Version | Previous Version | Text Only | Print | Product List | Glossary On
Versions: 1 2 3 4 5 6 7 8 9 10 11 12 13 14 15
000
FTUS42 KMLB 230539
TAFFPR
TAF
KFPR 230539Z 2306/2406 00000KT P6SM FEW025 SCT250
     FM231400 13012KT P6SM SCT030
     FM231800 12014G20KT P6SM SCT040
     FM240000 13008KT P6SM FEW060=

USA.gov is the U.S. government's official web portal to all federal, state and local government web resources and services.